Topsfield, Maine
Current Conditions -  °F | °C
As of 10:53 AM on Sunday 28 Dec 2014 (Local Time) from KMLT Reporting Station
Overcast Overcast  
Wind Chill: 33°   Ceiling: 3700
Heat Index: 38°   Visibility: 7mi
Dew Point: 36°   Wind: 6mph
Humidity: 93%   Direction: NA
Pressure: 29.61"   Gusts: NA
Location:  45.42°N, 67.73°W
Report Text: KMLT 281553Z AUTO VRB05KT 7SM BKN037 OVC050 03/02 A2961 RMK AO2 SLP034 T00330022
Loading
Personal Weather Stations






























Interactive Weather Map New forecast layout! Learn more

10-Day Weather Forecast

Advertisements
Track Severe Weather on mobile